Irvington on Hudson, New York
Current Conditions -  °F | °C
As of 4:56 AM on Monday 26 Jan 2015 (Local Time) from KHPN Reporting Station
Overcast Overcast  
Wind Chill: 11°   Ceiling: 5000
Heat Index: 20°   Visibility: 10mi
Dew Point:   Wind: 7mph
Humidity: 48%   Direction: 30°NNE
Pressure: 29.99"   Gusts: NA
Location:  41.0402°N, 73.8532°W
Report Text: KHPN 260956Z 03006KT 10SM OVC050 M07/M16 A2999 RMK AO2 SLP167 T10671161 $
Loading
Personal Weather Stations






























Interactive Weather Map New forecast layout! Learn more

10-Day Weather Forecast

Advertisements
Track Severe Weather on mobile